»·PEaware :: N123WA L88-KSBP

N123WA :: L88-KSBP

FLIGHT INFORMATION

Flight Status: Arrived
Operator: Privately registered:
United States
More flights under this callsign
Pilot: Walter A. (18941)
Aircraft: CESSNA 208 CARAVAN
(C208)
More flights by this aircraft type
Origin: L88 New Cuyama
United States
Destination: KSBP San Luis Co Regl
United States
More flights between these airports :: More routes between these airports
Route:
File this flight plan on PilotEdge
Remarks: cat 2
Altitude:
(Current/Filed)
6,500ft
Speed:
(Current/Filed)
115kts
Departed: 07-Sep-18 12:09 PM
Arrived: 07-Sep-18 02:09 PM
Distance/Time
Traveled:
50nm/2:00
Distance/Time
To Go:
Arrived

Flight Plot

Page will automatically refresh every two minutes.


Map Options




Map Legend


Flown Route
Filed Route
Departure Airport
Arrival Airport
Navaid (VOR, NDB)
Fix

Horizontal Profiles

Position Reports

Time Latitude Longitude Heading Altitude Ground
Speed
07-Sep-18 10:56 32.732420 -117.176641 193 23ft 0kts
07-Sep-18 10:57 32.732420 -117.176641 193 23ft 0kts
07-Sep-18 10:58 32.732420 -117.176641 193 23ft 0kts
07-Sep-18 10:59 32.732420 -117.176641 193 23ft 0kts
07-Sep-18 11:00 32.732420 -117.176641 193 23ft 0kts
07-Sep-18 11:01 32.732420 -117.176641 193 23ft 0kts
07-Sep-18 11:02 32.732420 -117.176641 193 23ft 0kts
07-Sep-18 11:03 32.732420 -117.176641 193 23ft 0kts
07-Sep-18 11:04 32.732420 -117.176641 193 23ft 0kts
07-Sep-18 11:05 32.732420 -117.176641 193 23ft 0kts
07-Sep-18 11:06 32.732420 -117.176641 193 23ft 0kts
07-Sep-18 11:07 32.732420 -117.176641 193 23ft 0kts
07-Sep-18 11:08 32.732420 -117.176641 193 23ft 0kts
07-Sep-18 11:09 32.732420 -117.176641 193 23ft 0kts
07-Sep-18 11:10 32.732420 -117.176641 193 23ft 0kts
07-Sep-18 11:11 32.732420 -117.176641 193 23ft 0kts
07-Sep-18 11:12 32.732420 -117.176641 193 23ft 0kts
07-Sep-18 11:13 32.732420 -117.176641 193 23ft 0kts
07-Sep-18 11:14 32.732420 -117.176641 193 23ft 0kts
07-Sep-18 11:15 32.732420 -117.176641 193 23ft 0kts
07-Sep-18 11:16 32.732420 -117.176641 193 23ft 0kts
07-Sep-18 11:17 32.732420 -117.176641 193 23ft 0kts
07-Sep-18 11:18 32.732420 -117.176641 193 23ft 0kts
07-Sep-18 11:19 32.732420 -117.176641 193 23ft 0kts
07-Sep-18 11:20 32.732420 -117.176641 193 23ft 0kts
07-Sep-18 11:21 32.732420 -117.176641 193 23ft 0kts
07-Sep-18 11:22 32.732420 -117.176641 193 23ft 0kts
07-Sep-18 11:23 32.732420 -117.176641 193 23ft 0kts
07-Sep-18 11:24 32.732420 -117.176641 193 23ft 0kts
07-Sep-18 11:25 32.732420 -117.176641 193 23ft 0kts
07-Sep-18 11:26 32.732420 -117.176641 193 23ft 0kts
07-Sep-18 11:27 32.732420 -117.176641 193 23ft 0kts
07-Sep-18 11:28 32.732420 -117.176641 193 23ft 0kts
07-Sep-18 11:29 32.732420 -117.176641 193 23ft 0kts
07-Sep-18 11:30 32.732420 -117.176641 193 23ft 0kts
07-Sep-18 11:31 32.732420 -117.176641 193 23ft 0kts
07-Sep-18 11:32 32.732420 -117.176641 193 23ft 0kts
07-Sep-18 11:33 32.732420 -117.176641 193 23ft 0kts
07-Sep-18 11:34 32.732420 -117.176641 193 23ft 0kts
07-Sep-18 11:35 32.732420 -117.176641 193 23ft 0kts
07-Sep-18 11:36 32.732420 -117.176641 193 23ft 0kts
07-Sep-18 11:37 32.732420 -117.176641 193 23ft 0kts
07-Sep-18 11:38 32.732420 -117.176641 193 23ft 0kts
07-Sep-18 11:39 32.732420 -117.176641 193 23ft 0kts
07-Sep-18 11:40 32.732420 -117.176641 193 23ft 0kts
07-Sep-18 11:41 32.732420 -117.176641 193 23ft 0kts
07-Sep-18 11:42 32.732420 -117.176641 193 23ft 0kts
07-Sep-18 11:43 32.732420 -117.176641 193 23ft 0kts
07-Sep-18 11:44 32.732420 -117.176641 193 23ft 0kts
07-Sep-18 11:45 32.732420 -117.176641 193 23ft 0kts
07-Sep-18 11:46 32.732420 -117.176641 193 23ft 0kts
07-Sep-18 11:47 32.732420 -117.176641 193 23ft 0kts
07-Sep-18 11:48 32.732420 -117.176641 193 23ft 0kts
07-Sep-18 11:49 32.732416 -117.176643 193 23ft 0kts
07-Sep-18 11:50 32.732408 -117.176644 192 23ft 0kts
07-Sep-18 11:51 32.732408 -117.176644 192 23ft 0kts
07-Sep-18 11:52 32.732408 -117.176644 192 23ft 0kts
07-Sep-18 11:53 32.731413 -117.176599 167 22ft 19kts
07-Sep-18 11:54 32.731413 -117.176599 167 22ft 19kts
07-Sep-18 11:55 32.731413 -117.176599 167 22ft 19kts
07-Sep-18 11:56 32.731413 -117.176599 167 22ft 19kts
07-Sep-18 11:57 32.731413 -117.176599 167 22ft 19kts
07-Sep-18 11:58 32.731413 -117.176599 167 22ft 19kts
07-Sep-18 11:59 32.731413 -117.176599 167 22ft 19kts
07-Sep-18 12:00 32.731413 -117.176599 167 22ft 19kts
07-Sep-18 12:01 32.731413 -117.176599 167 22ft 19kts
07-Sep-18 12:02 32.731413 -117.176599 167 22ft 19kts
07-Sep-18 12:03 32.731413 -117.176599 167 22ft 19kts
07-Sep-18 12:04 32.731413 -117.176599 167 22ft 19kts
07-Sep-18 12:05 32.731413 -117.176599 167 22ft 19kts
07-Sep-18 12:06 32.731413 -117.176599 167 22ft 19kts
07-Sep-18 12:07 32.731413 -117.176599 167 22ft 19kts
07-Sep-18 12:08 32.731413 -117.176599 167 22ft 19kts
07-Sep-18 12:09 32.731413 -117.176599 167 22ft 19kts
07-Sep-18 12:10 32.730909 -117.176462 174 22ft 17kts
07-Sep-18 12:11 32.731193 -117.181347 274 19ft 74kts
07-Sep-18 12:12 32.731743 -117.207322 251 2066ft 107kts
07-Sep-18 12:13 32.719107 -117.234747 305 3819ft 127kts
07-Sep-18 12:14 32.734133 -117.234849 17 5197ft 74kts
07-Sep-18 12:15 34.942873 -119.690276 204 2158ft 0kts
07-Sep-18 12:16 34.942873 -119.690276 204 2158ft 0kts
07-Sep-18 12:17 34.942551 -119.690694 226 2158ft 9kts
07-Sep-18 12:18 34.942469 -119.690796 227 2158ft 3kts
07-Sep-18 12:19 34.942469 -119.690796 227 2158ft 3kts
07-Sep-18 12:20 34.942469 -119.690796 227 2158ft 3kts
07-Sep-18 12:21 34.942469 -119.690796 227 2158ft 3kts
07-Sep-18 12:22 34.942469 -119.690796 227 2158ft 3kts
07-Sep-18 12:23 34.942382 -119.690917 229 2158ft 0kts
07-Sep-18 12:24 34.942382 -119.690917 229 2158ft 0kts
07-Sep-18 12:25 34.942444 -119.691362 356 2157ft 3kts
07-Sep-18 12:26 34.939781 -119.685079 117 2181ft 30kts
07-Sep-18 12:27 34.937627 -119.680221 215 2201ft 3kts
07-Sep-18 12:28 34.944938 -119.692211 308 3006ft 85kts
07-Sep-18 12:29 34.953932 -119.718762 310 4994ft 84kts
07-Sep-18 12:30 34.961855 -119.743684 250 6436ft 102kts
07-Sep-18 12:31 34.958400 -119.776855 250 7733ft 94kts
07-Sep-18 12:32 34.942785 -119.816159 246 7682ft 163kts
07-Sep-18 12:33 34.916736 -119.858707 253 7374ft 172kts
07-Sep-18 12:34 34.932760 -119.909732 292 6583ft 175kts
07-Sep-18 12:35 34.952130 -119.953967 311 6387ft 160kts
07-Sep-18 12:36 34.980121 -119.986742 318 6320ft 152kts
07-Sep-18 12:36 35.005449 -120.013440 318 6141ft 148kts
07-Sep-18 12:37 35.035130 -120.045654 318 6137ft 146kts
07-Sep-18 12:39 35.058713 -120.071389 315 6068ft 147kts
07-Sep-18 12:40 35.058713 -120.071389 315 6068ft 147kts
07-Sep-18 12:40 35.068082 -120.083390 313 6069ft 147kts
07-Sep-18 12:41 35.095291 -120.118902 313 6069ft 146kts
07-Sep-18 12:42 35.119955 -120.151003 313 5888ft 155kts
07-Sep-18 12:43 35.142227 -120.192246 281 5337ft 160kts
07-Sep-18 12:44 35.149402 -120.242322 273 4783ft 161kts
07-Sep-18 12:45 35.151702 -120.292763 273 4327ft 155kts
07-Sep-18 12:46 35.153229 -120.341096 270 4337ft 147kts
07-Sep-18 12:47 35.156926 -120.388250 282 4328ft 147kts
07-Sep-18 12:48 35.165024 -120.434740 282 4255ft 147kts
07-Sep-18 12:49 35.178866 -120.477489 296 3933ft 140kts
07-Sep-18 12:50 35.196263 -120.516757 299 3622ft 139kts
07-Sep-18 12:51 35.214259 -120.555626 298 3311ft 139kts
07-Sep-18 12:52 35.219901 -120.602062 295 1355ft 164kts
07-Sep-18 12:53 34.942871 -119.690276 204 2158ft 0kts
07-Sep-18 12:54 34.942871 -119.690276 204 2158ft 0kts
07-Sep-18 12:55 34.942467 -119.690380 179 2159ft 3kts
07-Sep-18 12:57 34.942450 -119.690379 177 2159ft 0kts
07-Sep-18 12:58 34.942449 -119.690379 178 2159ft 0kts
07-Sep-18 12:59 34.942356 -119.690368 170 2159ft 0kts
07-Sep-18 13:00 34.942356 -119.690368 170 2159ft 0kts
07-Sep-18 13:01 34.942356 -119.690368 170 2159ft 0kts
07-Sep-18 13:03 34.942356 -119.690368 170 2159ft 0kts
07-Sep-18 13:04 34.942356 -119.690368 170 2159ft 0kts
07-Sep-18 13:05 34.942356 -119.690368 170 2159ft 0kts
07-Sep-18 13:06 34.942356 -119.690368 170 2159ft 0kts
07-Sep-18 13:07 34.942356 -119.690368 170 2159ft 0kts
07-Sep-18 13:08 34.942356 -119.690368 170 2159ft 0kts
07-Sep-18 13:09 34.942356 -119.690368 170 2159ft 0kts
07-Sep-18 13:10 34.942356 -119.690368 170 2159ft 0kts
07-Sep-18 13:11 34.942356 -119.690368 170 2159ft 0kts
07-Sep-18 13:12 34.942356 -119.690368 170 2159ft 0kts
07-Sep-18 13:13 34.942356 -119.690368 170 2159ft 0kts
07-Sep-18 13:14 34.942356 -119.690368 170 2159ft 0kts
07-Sep-18 13:15 34.942356 -119.690368 170 2159ft 0kts
07-Sep-18 13:16 34.942356 -119.690368 170 2159ft 0kts
07-Sep-18 13:17 34.942356 -119.690368 170 2159ft 0kts
07-Sep-18 13:18 34.942356 -119.690368 170 2159ft 0kts
07-Sep-18 13:19 34.942356 -119.690368 170 2159ft 0kts
07-Sep-18 13:20 34.942356 -119.690368 170 2159ft 0kts
07-Sep-18 13:21 34.942356 -119.690368 170 2159ft 0kts
07-Sep-18 13:22 34.942356 -119.690368 170 2159ft 0kts
07-Sep-18 13:23 34.942356 -119.690368 170 2159ft 0kts
07-Sep-18 13:24 34.942356 -119.690368 170 2159ft 0kts
07-Sep-18 13:25 34.942356 -119.690368 170 2159ft 0kts
07-Sep-18 13:26 34.942356 -119.690368 170 2159ft 0kts
07-Sep-18 13:27 34.942356 -119.690368 170 2159ft 0kts
07-Sep-18 13:28 34.942356 -119.690368 170 2159ft 0kts
07-Sep-18 13:29 34.942356 -119.690368 170 2159ft 0kts
07-Sep-18 13:30 34.942356 -119.690368 170 2159ft 0kts
07-Sep-18 13:31 34.942356 -119.690368 170 2159ft 0kts
07-Sep-18 13:32 34.942356 -119.690368 170 2159ft 0kts
07-Sep-18 13:33 34.942356 -119.690368 170 2159ft 0kts
07-Sep-18 13:34 34.942356 -119.690368 170 2159ft 0kts
07-Sep-18 13:35 34.942356 -119.690368 170 2159ft 0kts
07-Sep-18 13:36 34.942356 -119.690368 170 2159ft 0kts
07-Sep-18 13:37 34.942356 -119.690368 170 2159ft 0kts
07-Sep-18 13:38 34.942356 -119.690368 170 2159ft 0kts
07-Sep-18 13:39 34.942356 -119.690368 170 2159ft 0kts
07-Sep-18 13:40 34.942356 -119.690368 170 2159ft 0kts
07-Sep-18 13:41 34.942356 -119.690368 170 2159ft 0kts
07-Sep-18 13:42 34.942356 -119.690368 170 2159ft 0kts
07-Sep-18 13:43 34.942356 -119.690368 170 2159ft 0kts
07-Sep-18 13:44 34.942352 -119.690367 169 2159ft 0kts
07-Sep-18 13:45 34.939894 -119.685068 117 2181ft 46kts
07-Sep-18 13:46 34.937774 -119.680230 295 2201ft 11kts
07-Sep-18 13:47 34.950666 -119.703662 300 3305ft 115kts
07-Sep-18 13:48 34.963552 -119.736287 307 4713ft 140kts
07-Sep-18 13:49 34.968322 -119.768749 238 5969ft 125kts
07-Sep-18 13:50 34.965563 -119.809572 295 5991ft 152kts
07-Sep-18 13:51 34.983825 -119.854984 295 6075ft 153kts
07-Sep-18 13:52 35.004507 -119.900573 299 6075ft 155kts
07-Sep-18 13:53 35.025407 -119.945694 299 6074ft 155kts
07-Sep-18 13:54 35.044545 -119.991269 292 6093ft 156kts
07-Sep-18 13:55 35.060807 -120.040243 292 6262ft 161kts
07-Sep-18 13:56 35.076938 -120.091066 287 6456ft 160kts
07-Sep-18 13:57 35.090169 -120.142828 287 6583ft 163kts
07-Sep-18 13:58 35.103901 -120.196160 287 6521ft 166kts
07-Sep-18 13:59 35.117841 -120.249881 287 6465ft 166kts
07-Sep-18 14:00 35.130939 -120.300000 288 6414ft 166kts
07-Sep-18 14:01 35.143526 -120.347855 288 6368ft 166kts
07-Sep-18 14:02 35.156790 -120.397933 288 6321ft 166kts
07-Sep-18 14:03 35.170896 -120.450819 288 6272ft 166kts
07-Sep-18 14:04 35.191331 -120.497763 306 6136ft 171kts
07-Sep-18 14:05 35.200712 -120.551694 275 5860ft 168kts
07-Sep-18 14:06 35.205390 -120.605525 283 5210ft 149kts
07-Sep-18 14:07 35.227863 -120.619435 63 4526ft 125kts
07-Sep-18 14:08 35.212388 -120.615927 351 960ft 160kts
07-Sep-18 14:09 35.222723 -120.618543 187 479ft 89kts
07-Sep-18 14:10 35.229848 -120.630425 333 384ft 74kts
07-Sep-18 14:11 35.240140 -120.645000 342 173ft 36kts
07-Sep-18 14:12 35.240715 -120.645125 320 172ft 0kts
07-Sep-18 14:13 35.240715 -120.645125 320 172ft 0kts
07-Sep-18 14:14 35.241471 -120.645940 250 169ft 0kts

Navigation Log

Ident Type
1. L88 Airport
2. KSBP Airport